sensor_id;sensor_type;location;lat;lon;timestamp;pressure;altitude;pressure_sealevel;temperature;humidity
20909;BME280;10614;53.198;6.570;2023-03-31T00:01:28;100264.47;;;10.23;100.00
20909;BME280;10614;53.198;6.570;2023-03-31T00:03:29;100264.56;;;10.21;100.00
20909;BME280;10614;53.198;6.570;2023-03-31T00:05:35;100262.00;;;10.20;100.00
20909;BME280;10614;53.198;6.570;2023-03-31T00:07:37;100261.06;;;10.21;100.00
20909;BME280;10614;53.198;6.570;2023-03-31T00:09:38;100259.22;;;10.23;100.00
20909;BME280;10614;53.198;6.570;2023-03-31T00:11:45;100245.22;;;10.22;100.00
20909;BME280;10614;53.198;6.570;2023-03-31T00:13:47;100253.13;;;10.22;100.00
20909;BME280;10614;53.198;6.570;2023-03-31T00:15:55;100229.50;;;10.21;100.00
20909;BME280;10614;53.198;6.570;2023-03-31T00:17:57;100238.34;;;10.20;100.00
20909;BME280;10614;53.198;6.570;2023-03-31T00:19:59;100237.41;;;10.21;100.00
20909;BME280;10614;53.198;6.570;2023-03-31T00:22:05;100243.44;;;10.23;100.00
20909;BME280;10614;53.198;6.570;2023-03-31T00:24:08;100227.66;;;10.23;100.00
20909;BME280;10614;53.198;6.570;2023-03-31T00:26:10;100225.91;;;10.23;100.00
20909;BME280;10614;53.198;6.570;2023-03-31T00:28:12;100210.19;;;10.22;100.00
20909;BME280;10614;53.198;6.570;2023-03-31T00:30:14;100205.69;;;10.24;100.00
20909;BME280;10614;53.198;6.570;2023-03-31T00:32:18;100200.44;;;10.24;100.00
20909;BME280;10614;53.198;6.570;2023-03-31T00:34:20;100202.22;;;10.23;100.00
20909;BME280;10614;53.198;6.570;2023-03-31T00:36:22;100190.94;;;10.21;100.00
20909;BME280;10614;53.198;6.570;2023-03-31T00:38:27;100190.06;;;10.21;100.00
20909;BME280;10614;53.198;6.570;2023-03-31T00:40:33;100194.47;;;10.20;100.00
20909;BME280;10614;53.198;6.570;2023-03-31T00:42:38;100180.53;;;10.18;100.00
20909;BME280;10614;53.198;6.570;2023-03-31T00:47:19;100169.25;;;10.16;100.00
20909;BME280;10614;53.198;6.570;2023-03-31T00:49:26;100172.75;;;10.17;100.00
20909;BME280;10614;53.198;6.570;2023-03-31T00:51:32;100166.69;;;10.14;100.00
20909;BME280;10614;53.198;6.570;2023-03-31T00:53:35;100164.97;;;10.13;100.00
20909;BME280;10614;53.198;6.570;2023-03-31T00:55:42;100160.66;;;10.12;100.00
20909;BME280;10614;53.198;6.570;2023-03-31T00:57:46;100155.41;;;10.12;100.00
20909;BME280;10614;53.198;6.570;2023-03-31T00:59:55;100153.72;;;10.11;100.00
20909;BME280;10614;53.198;6.570;2023-03-31T01:01:59;100146.78;;;10.09;100.00
20909;BME280;10614;53.198;6.570;2023-03-31T01:04:06;100145.94;;;10.08;100.00
20909;BME280;10614;53.198;6.570;2023-03-31T01:06:09;100145.09;;;10.08;100.00
20909;BME280;10614;53.198;6.570;2023-03-31T01:08:11;100138.16;;;10.07;100.00
20909;BME280;10614;53.198;6.570;2023-03-31T01:10:14;100142.53;;;10.06;100.00
20909;BME280;10614;53.198;6.570;2023-03-31T01:12:16;100134.81;;;10.03;100.00
20909;BME280;10614;53.198;6.570;2023-03-31T01:14:19;100133.97;;;10.03;100.00
20909;BME280;10614;53.198;6.570;2023-03-31T01:16:21;100130.56;;;10.01;100.00
20909;BME280;10614;53.198;6.570;2023-03-31T01:18:23;100123.59;;;10.00;100.00
20909;BME280;10614;53.198;6.570;2023-03-31T01:20:36;100120.97;;;10.00;100.00
20909;BME280;10614;53.198;6.570;2023-03-31T01:23:09;100121.94;;;9.97;100.00
20909;BME280;10614;53.198;6.570;2023-03-31T01:25:28;100122.06;;;9.96;100.00
20909;BME280;10614;53.198;6.570;2023-03-31T01:28:00;100116.06;;;9.92;100.00
20909;BME280;10614;53.198;6.570;2023-03-31T01:30:49;100110.75;;;9.93;100.00
20909;BME280;10614;53.198;6.570;2023-03-31T01:35:40;100103.16;;;9.87;100.00
20909;BME280;10614;53.198;6.570;2023-03-31T01:38:03;100101.53;;;9.85;100.00
20909;BME280;10614;53.198;6.570;2023-03-31T01:40:43;100102.53;;;9.82;100.00
20909;BME280;10614;53.198;6.570;2023-03-31T01:42:51;100097.44;;;9.79;100.00
20909;BME280;10614;53.198;6.570;2023-03-31T01:45:00;100093.09;;;9.78;100.00
20909;BME280;10614;53.198;6.570;2023-03-31T01:47:07;100086.22;;;9.76;100.00
20909;BME280;10614;53.198;6.570;2023-03-31T01:49:16;100087.16;;;9.75;100.00
20909;BME280;10614;53.198;6.570;2023-03-31T01:51:26;100074.00;;;9.75;100.00
20909;BME280;10614;53.198;6.570;2023-03-31T01:53:35;100073.06;;;9.76;100.00
20909;BME280;10614;53.198;6.570;2023-03-31T01:55:44;100078.31;;;9.76;100.00
20909;BME280;10614;53.198;6.570;2023-03-31T01:57:50;100072.22;;;9.75;100.00
20909;BME280;10614;53.198;6.570;2023-03-31T02:00:00;100076.63;;;9.75;100.00
20909;BME280;10614;53.198;6.570;2023-03-31T02:02:05;100078.47;;;9.72;100.00
20909;BME280;10614;53.198;6.570;2023-03-31T02:04:15;100075.84;;;9.72;100.00
20909;BME280;10614;53.198;6.570;2023-03-31T02:06:22;100071.50;;;9.71;100.00
20909;BME280;10614;53.198;6.570;2023-03-31T02:08:30;100067.19;;;9.70;100.00
20909;BME280;10614;53.198;6.570;2023-03-31T02:10:34;100055.00;;;9.69;100.00
20909;BME280;10614;53.198;6.570;2023-03-31T02:12:40;100057.63;;;9.69;100.00
20909;BME280;10614;53.198;6.570;2023-03-31T02:14:44;100058.53;;;9.68;100.00
20909;BME280;10614;53.198;6.570;2023-03-31T02:16:51;100057.69;;;9.68;100.00
20909;BME280;10614;53.198;6.570;2023-03-31T02:18:58;100049.88;;;9.66;100.00
20909;BME280;10614;53.198;6.570;2023-03-31T02:21:04;100044.69;;;9.65;100.00
20909;BME280;10614;53.198;6.570;2023-03-31T02:23:07;100041.34;;;9.61;100.00
20909;BME280;10614;53.198;6.570;2023-03-31T02:25:15;100040.56;;;9.59;100.00
20909;BME280;10614;53.198;6.570;2023-03-31T02:27:21;100029.16;;;9.60;100.00
20909;BME280;10614;53.198;6.570;2023-03-31T02:29:27;100026.66;;;9.57;100.00
20909;BME280;10614;53.198;6.570;2023-03-31T02:31:37;100033.69;;;9.57;100.00
20909;BME280;10614;53.198;6.570;2023-03-31T02:33:41;100034.63;;;9.56;100.00
20909;BME280;10614;53.198;6.570;2023-03-31T02:35:43;100020.63;;;9.55;100.00
20909;BME280;10614;53.198;6.570;2023-03-31T02:37:45;100019.78;;;9.55;100.00
20909;BME280;10614;53.198;6.570;2023-03-31T02:39:51;100014.53;;;9.55;100.00
20909;BME280;10614;53.198;6.570;2023-03-31T02:41:54;100012.84;;;9.54;100.00
20909;BME280;10614;53.198;6.570;2023-03-31T02:43:56;100005.81;;;9.54;100.00
20909;BME280;10614;53.198;6.570;2023-03-31T02:45:59;100003.19;;;9.54;100.00
20909;BME280;10614;53.198;6.570;2023-03-31T02:48:01;100003.25;;;9.52;100.00
20909;BME280;10614;53.198;6.570;2023-03-31T02:50:07;99998.88;;;9.53;100.00
20909;BME280;10614;53.198;6.570;2023-03-31T02:52:28;99991.72;;;9.55;100.00
20909;BME280;10614;53.198;6.570;2023-03-31T02:57:31;99981.22;;;9.55;100.00
20909;BME280;10614;53.198;6.570;2023-03-31T02:59:48;99972.44;;;9.56;100.00
20909;BME280;10614;53.198;6.570;2023-03-31T03:02:09;99973.22;;;9.58;100.00
20909;BME280;10614;53.198;6.570;2023-03-31T03:04:27;99974.03;;;9.59;100.00
20909;BME280;10614;53.198;6.570;2023-03-31T03:06:40;99961.75;;;9.59;100.00
20909;BME280;10614;53.198;6.570;2023-03-31T03:08:56;99962.59;;;9.60;100.00
20909;BME280;10614;53.198;6.570;2023-03-31T03:11:06;99958.22;;;9.60;100.00
20909;BME280;10614;53.198;6.570;2023-03-31T03:13:18;99946.84;;;9.60;100.00
20909;BME280;10614;53.198;6.570;2023-03-31T03:15:25;99944.22;;;9.60;100.00
20909;BME280;10614;53.198;6.570;2023-03-31T03:17:33;99940.72;;;9.59;100.00
20909;BME280;10614;53.198;6.570;2023-03-31T03:19:36;99932.00;;;9.59;100.00
20909;BME280;10614;53.198;6.570;2023-03-31T03:21:39;99937.25;;;9.59;100.00
20909;BME280;10614;53.198;6.570;2023-03-31T03:23:41;99924.13;;;9.59;100.00
20909;BME280;10614;53.198;6.570;2023-03-31T03:25:43;99934.56;;;9.60;100.00
20909;BME280;10614;53.198;6.570;2023-03-31T03:27:45;99923.19;;;9.60;100.00
20909;BME280;10614;53.198;6.570;2023-03-31T03:29:47;99911.94;;;9.58;100.00
20909;BME280;10614;53.198;6.570;2023-03-31T03:31:49;99904.91;;;9.58;100.00
20909;BME280;10614;53.198;6.570;2023-03-31T03:33:53;99901.50;;;9.56;100.00
20909;BME280;10614;53.198;6.570;2023-03-31T03:35:55;99904.06;;;9.58;100.00
20909;BME280;10614;53.198;6.570;2023-03-31T03:37:57;99893.53;;;9.58;100.00
20909;BME280;10614;53.198;6.570;2023-03-31T03:39:58;99890.03;;;9.57;100.00
20909;BME280;10614;53.198;6.570;2023-03-31T03:42:03;99885.72;;;9.56;100.00
20909;BME280;10614;53.198;6.570;2023-03-31T03:44:04;99879.63;;;9.56;100.00
20909;BME280;10614;53.198;6.570;2023-03-31T03:46:06;99874.28;;;9.57;100.00
20909;BME280;10614;53.198;6.570;2023-03-31T03:48:08;99875.22;;;9.56;100.00
20909;BME280;10614;53.198;6.570;2023-03-31T03:50:12;99862.09;;;9.56;100.00
20909;BME280;10614;53.198;6.570;2023-03-31T03:52:14;99864.72;;;9.56;100.00
20909;BME280;10614;53.198;6.570;2023-03-31T03:54:16;99867.28;;;9.58;100.00
20909;BME280;10614;53.198;6.570;2023-03-31T03:56:18;99858.50;;;9.57;100.00
20909;BME280;10614;53.198;6.570;2023-03-31T03:58:21;99845.47;;;9.56;100.00
20909;BME280;10614;53.198;6.570;2023-03-31T04:00:23;99851.56;;;9.56;100.00
20909;BME280;10614;53.198;6.570;2023-03-31T04:02:25;99841.06;;;9.56;100.00
20909;BME280;10614;53.198;6.570;2023-03-31T04:04:27;99840.13;;;9.57;100.00
20909;BME280;10614;53.198;6.570;2023-03-31T04:06:31;99841.00;;;9.58;100.00
20909;BME280;10614;53.198;6.570;2023-03-31T04:08:32;99833.13;;;9.58;100.00
20909;BME280;10614;53.198;6.570;2023-03-31T04:10:34;99829.53;;;9.59;100.00
20909;BME280;10614;53.198;6.570;2023-03-31T04:12:36;99827.75;;;9.59;100.00
20909;BME280;10614;53.198;6.570;2023-03-31T04:14:38;99817.34;;;9.58;100.00
20909;BME280;10614;53.198;6.570;2023-03-31T04:16:40;99818.97;;;9.60;100.00
20909;BME280;10614;53.198;6.570;2023-03-31T04:18:41;99818.03;;;9.61;100.00
20909;BME280;10614;53.198;6.570;2023-03-31T04:20:48;99807.44;;;9.63;100.00
20909;BME280;10614;53.198;6.570;2023-03-31T04:22:55;99810.06;;;9.63;100.00
20909;BME280;10614;53.198;6.570;2023-03-31T04:24:57;99806.59;;;9.62;100.00
20909;BME280;10614;53.198;6.570;2023-03-31T04:26:59;99802.19;;;9.63;100.00
20909;BME280;10614;53.198;6.570;2023-03-31T04:29:03;99796.00;;;9.64;100.00
20909;BME280;10614;53.198;6.570;2023-03-31T04:31:04;99788.94;;;9.64;100.00
20909;BME280;10614;53.198;6.570;2023-03-31T04:33:06;99796.00;;;9.64;100.00
20909;BME280;10614;53.198;6.570;2023-03-31T04:35:08;99786.25;;;9.66;100.00
20909;BME280;10614;53.198;6.570;2023-03-31T04:37:14;99781.06;;;9.64;100.00
20909;BME280;10614;53.198;6.570;2023-03-31T04:39:18;99772.34;;;9.64;100.00
20909;BME280;10614;53.198;6.570;2023-03-31T04:41:26;99774.06;;;9.65;100.00
20909;BME280;10614;53.198;6.570;2023-03-31T04:43:28;99769.72;;;9.64;100.00
20909;BME280;10614;53.198;6.570;2023-03-31T04:45:30;99761.94;;;9.62;100.00
20909;BME280;10614;53.198;6.570;2023-03-31T04:47:32;99761.06;;;9.62;100.00
20909;BME280;10614;53.198;6.570;2023-03-31T04:49:34;99758.44;;;9.62;100.00
20909;BME280;10614;53.198;6.570;2023-03-31T04:51:36;99755.81;;;9.62;100.00
20909;BME280;10614;53.198;6.570;2023-03-31T04:53:38;99751.44;;;9.62;100.00
20909;BME280;10614;53.198;6.570;2023-03-31T04:55:41;99740.91;;;9.62;100.00
20909;BME280;10614;53.198;6.570;2023-03-31T04:57:43;99745.28;;;9.62;100.00
20909;BME280;10614;53.198;6.570;2023-03-31T04:59:45;99739.19;;;9.61;100.00
20909;BME280;10614;53.198;6.570;2023-03-31T05:01:47;99731.31;;;9.61;100.00
20909;BME280;10614;53.198;6.570;2023-03-31T05:03:48;99732.34;;;9.59;100.00
20909;BME280;10614;53.198;6.570;2023-03-31T05:05:50;99730.56;;;9.59;100.00
20909;BME280;10614;53.198;6.570;2023-03-31T05:07:52;99723.50;;;9.60;100.00
20909;BME280;10614;53.198;6.570;2023-03-31T05:09:54;99728.88;;;9.58;100.00
20909;BME280;10614;53.198;6.570;2023-03-31T05:11:57;99719.28;;;9.57;100.00
20909;BME280;10614;53.198;6.570;2023-03-31T05:13:59;99713.09;;;9.58;100.00
20909;BME280;10614;53.198;6.570;2023-03-31T05:16:05;99720.03;;;9.59;100.00
20909;BME280;10614;53.198;6.570;2023-03-31T05:18:07;99714.78;;;9.59;100.00
20909;BME280;10614;53.198;6.570;2023-03-31T05:20:10;99713.88;;;9.60;100.00
20909;BME280;10614;53.198;6.570;2023-03-31T05:22:14;99705.22;;;9.58;100.00
20909;BME280;10614;53.198;6.570;2023-03-31T05:24:16;99703.38;;;9.60;100.00
20909;BME280;10614;53.198;6.570;2023-03-31T05:26:18;99704.19;;;9.61;100.00
20909;BME280;10614;53.198;6.570;2023-03-31T05:28:23;99693.75;;;9.59;100.00
20909;BME280;10614;53.198;6.570;2023-03-31T05:30:25;99695.47;;;9.60;100.00
20909;BME280;10614;53.198;6.570;2023-03-31T05:32:28;99681.72;;;9.55;100.00
20909;BME280;10614;53.198;6.570;2023-03-31T05:34:30;99689.22;;;9.63;100.00
20909;BME280;10614;53.198;6.570;2023-03-31T05:36:32;99686.66;;;9.61;100.00
20909;BME280;10614;53.198;6.570;2023-03-31T05:38:34;99683.13;;;9.62;100.00
20909;BME280;10614;53.198;6.570;2023-03-31T05:40:36;99685.63;;;9.64;100.00
20909;BME280;10614;53.198;6.570;2023-03-31T05:42:38;99675.13;;;9.64;100.00
20909;BME280;10614;53.198;6.570;2023-03-31T05:44:43;99662.00;;;9.64;100.00
20909;BME280;10614;53.198;6.570;2023-03-31T05:46:45;99663.78;;;9.63;100.00
20909;BME280;10614;53.198;6.570;2023-03-31T05:48:47;99667.16;;;9.65;100.00
20909;BME280;10614;53.198;6.570;2023-03-31T05:50:54;99664.53;;;9.65;100.00
20909;BME280;10614;53.198;6.570;2023-03-31T05:52:56;99663.69;;;9.65;100.00
20909;BME280;10614;53.198;6.570;2023-03-31T05:54:59;99664.53;;;9.65;100.00
20909;BME280;10614;53.198;6.570;2023-03-31T05:57:02;99660.13;;;9.66;100.00
20909;BME280;10614;53.198;6.570;2023-03-31T05:59:07;99660.13;;;9.66;100.00
20909;BME280;10614;53.198;6.570;2023-03-31T06:01:12;99653.09;;;9.66;100.00
20909;BME280;10614;53.198;6.570;2023-03-31T06:03:19;99653.09;;;9.66;100.00
20909;BME280;10614;53.198;6.570;2023-03-31T06:05:21;99651.41;;;9.65;100.00
20909;BME280;10614;53.198;6.570;2023-03-31T06:07:25;99640.91;;;9.65;100.00
20909;BME280;10614;53.198;6.570;2023-03-31T06:09:27;99640.91;;;9.65;100.00
20909;BME280;10614;53.198;6.570;2023-03-31T06:11:29;99635.63;;;9.65;100.00
20909;BME280;10614;53.198;6.570;2023-03-31T06:13:32;99632.94;;;9.67;100.00
20909;BME280;10614;53.198;6.570;2023-03-31T06:15:37;99617.31;;;9.64;100.00
20909;BME280;10614;53.198;6.570;2023-03-31T06:17:41;99618.94;;;9.66;100.00
20909;BME280;10614;53.198;6.570;2023-03-31T06:19:44;99619.81;;;9.67;100.00
20909;BME280;10614;53.198;6.570;2023-03-31T06:21:47;99622.44;;;9.67;100.00
20909;BME280;10614;53.198;6.570;2023-03-31T06:23:49;99612.84;;;9.66;100.00
20909;BME280;10614;53.198;6.570;2023-03-31T06:26:01;99608.41;;;9.66;100.00
20909;BME280;10614;53.198;6.570;2023-03-31T06:28:03;99602.41;;;9.64;100.00
20909;BME280;10614;53.198;6.570;2023-03-31T06:30:08;99600.53;;;9.66;100.00
20909;BME280;10614;53.198;6.570;2023-03-31T06:32:09;99597.91;;;9.66;100.00
20909;BME280;10614;53.198;6.570;2023-03-31T06:34:13;99595.28;;;9.66;100.00
20909;BME280;10614;53.198;6.570;2023-03-31T06:36:17;99585.66;;;9.67;100.00
20909;BME280;10614;53.198;6.570;2023-03-31T06:38:19;99587.31;;;9.68;100.00
20909;BME280;10614;53.198;6.570;2023-03-31T06:40:21;99583.84;;;9.67;100.00
20909;BME280;10614;53.198;6.570;2023-03-31T06:42:23;99589.09;;;9.67;100.00
20909;BME280;10614;53.198;6.570;2023-03-31T06:44:25;99582.91;;;9.68;100.00
20909;BME280;10614;53.198;6.570;2023-03-31T06:46:27;99584.63;;;9.69;100.00
20909;BME280;10614;53.198;6.570;2023-03-31T06:48:28;99576.75;;;9.69;100.00
20909;BME280;10614;53.198;6.570;2023-03-31T06:50:32;99574.94;;;9.70;100.00
20909;BME280;10614;53.198;6.570;2023-03-31T06:52:34;99570.53;;;9.70;100.00
20909;BME280;10614;53.198;6.570;2023-03-31T06:54:35;99573.16;;;9.70;100.00
20909;BME280;10614;53.198;6.570;2023-03-31T06:56:37;99565.19;;;9.72;100.00
20909;BME280;10614;53.198;6.570;2023-03-31T06:58:39;99560.88;;;9.71;100.00
20909;BME280;10614;53.198;6.570;2023-03-31T07:00:41;99555.59;;;9.71;100.00
20909;BME280;10614;53.198;6.570;2023-03-31T07:02:45;99556.44;;;9.71;100.00
20909;BME280;10614;53.198;6.570;2023-03-31T07:04:47;99553.81;;;9.71;100.00
20909;BME280;10614;53.198;6.570;2023-03-31T07:06:50;99538.16;;;9.70;100.00
20909;BME280;10614;53.198;6.570;2023-03-31T07:08:51;99546.03;;;9.70;100.00
20909;BME280;10614;53.198;6.570;2023-03-31T07:10:54;99539.00;;;9.70;100.00
20909;BME280;10614;53.198;6.570;2023-03-31T07:12:57;99539.84;;;9.71;100.00
20909;BME280;10614;53.198;6.570;2023-03-31T07:14:59;99539.00;;;9.70;100.00
20909;BME280;10614;53.198;6.570;2023-03-31T07:17:01;99541.56;;;9.72;100.00
20909;BME280;10614;53.198;6.570;2023-03-31T07:19:03;99536.31;;;9.72;100.00
20909;BME280;10614;53.198;6.570;2023-03-31T07:21:07;99531.03;;;9.72;100.00
20909;BME280;10614;53.198;6.570;2023-03-31T07:23:10;99523.16;;;9.72;100.00
20909;BME280;10614;53.198;6.570;2023-03-31T07:25:15;99526.63;;;9.72;100.00
20909;BME280;10614;53.198;6.570;2023-03-31T07:27:17;99513.56;;;9.71;100.00
20909;BME280;10614;53.198;6.570;2023-03-31T07:29:19;99520.59;;;9.70;100.00
20909;BME280;10614;53.198;6.570;2023-03-31T07:31:21;99516.31;;;9.69;100.00
20909;BME280;10614;53.198;6.570;2023-03-31T07:33:22;99516.13;;;9.72;100.00
20909;BME280;10614;53.198;6.570;2023-03-31T07:35:25;99504.66;;;9.73;100.00
20909;BME280;10614;53.198;6.570;2023-03-31T07:37:26;99516.03;;;9.74;100.00
20909;BME280;10614;53.198;6.570;2023-03-31T07:39:30;99504.59;;;9.75;100.00
20909;BME280;10614;53.198;6.570;2023-03-31T07:41:32;99502.78;;;9.76;100.00
20909;BME280;10614;53.198;6.570;2023-03-31T07:43:34;99505.34;;;9.77;100.00
20909;BME280;10614;53.198;6.570;2023-03-31T07:45:38;99507.03;;;9.78;100.00
20909;BME280;10614;53.198;6.570;2023-03-31T07:47:40;99503.56;;;9.78;100.00
20909;BME280;10614;53.198;6.570;2023-03-31T07:49:42;99500.94;;;9.78;100.00
20909;BME280;10614;53.198;6.570;2023-03-31T07:51:44;99495.66;;;9.78;100.00
20909;BME280;10614;53.198;6.570;2023-03-31T07:53:46;99493.88;;;9.78;100.00
20909;BME280;10614;53.198;6.570;2023-03-31T07:55:53;99498.09;;;9.81;100.00
20909;BME280;10614;53.198;6.570;2023-03-31T07:57:55;99487.59;;;9.81;100.00
20909;BME280;10614;53.198;6.570;2023-03-31T07:59:57;99486.69;;;9.82;100.00
20909;BME280;10614;53.198;6.570;2023-03-31T08:02:00;99485.91;;;9.80;100.00
20909;BME280;10614;53.198;6.570;2023-03-31T08:04:02;99473.81;;;9.77;100.00
20909;BME280;10614;53.198;6.570;2023-03-31T08:06:06;99474.47;;;9.81;100.00
20909;BME280;10614;53.198;6.570;2023-03-31T08:08:08;99474.47;;;9.81;100.00
20909;BME280;10614;53.198;6.570;2023-03-31T08:10:12;99471.81;;;9.81;100.00
20909;BME280;10614;53.198;6.570;2023-03-31T08:12:16;99461.31;;;9.81;100.00
20909;BME280;10614;53.198;6.570;2023-03-31T08:14:18;99461.31;;;9.81;100.00
20909;BME280;10614;53.198;6.570;2023-03-31T08:16:20;99465.66;;;9.82;100.00
20909;BME280;10614;53.198;6.570;2023-03-31T08:18:21;99463.03;;;9.82;100.00
20909;BME280;10614;53.198;6.570;2023-03-31T08:20:23;99452.72;;;9.79;100.00
20909;BME280;10614;53.198;6.570;2023-03-31T08:22:25;99452.72;;;9.79;100.00
20909;BME280;10614;53.198;6.570;2023-03-31T08:24:27;99452.59;;;9.80;100.00
20909;BME280;10614;53.198;6.570;2023-03-31T08:26:29;99451.84;;;9.78;100.00
20909;BME280;10614;53.198;6.570;2023-03-31T08:28:33;99445.66;;;9.79;100.00
20909;BME280;10614;53.198;6.570;2023-03-31T08:30:36;99450.06;;;9.79;100.00
20909;BME280;10614;53.198;6.570;2023-03-31T08:32:38;99444.81;;;9.79;100.00
20909;BME280;10614;53.198;6.570;2023-03-31T08:34:40;99443.94;;;9.78;100.00
20909;BME280;10614;53.198;6.570;2023-03-31T08:36:43;99436.94;;;9.79;100.00
20909;BME280;10614;53.198;6.570;2023-03-31T08:38:45;99440.28;;;9.81;100.00
20909;BME280;10614;53.198;6.570;2023-03-31T08:40:48;99428.09;;;9.80;100.00
20909;BME280;10614;53.198;6.570;2023-03-31T08:42:52;99434.19;;;9.80;100.00
20909;BME280;10614;53.198;6.570;2023-03-31T08:45:00;99430.66;;;9.81;100.00
20909;BME280;10614;53.198;6.570;2023-03-31T08:47:06;99434.97;;;9.82;100.00
20909;BME280;10614;53.198;6.570;2023-03-31T08:49:14;99428.94;;;9.80;100.00
20909;BME280;10614;53.198;6.570;2023-03-31T08:51:19;99428.88;;;9.82;100.00
20909;BME280;10614;53.198;6.570;2023-03-31T08:53:23;99428.78;;;9.83;100.00
20909;BME280;10614;53.198;6.570;2023-03-31T08:55:28;99421.81;;;9.82;100.00
20909;BME280;10614;53.198;6.570;2023-03-31T08:57:39;99422.56;;;9.84;100.00
20909;BME280;10614;53.198;6.570;2023-03-31T08:59:44;99427.75;;;9.86;100.00
20909;BME280;10614;53.198;6.570;2023-03-31T09:01:54;99418.91;;;9.87;100.00
20909;BME280;10614;53.198;6.570;2023-03-31T09:04:11;99414.50;;;9.87;100.00
20909;BME280;10614;53.198;6.570;2023-03-31T09:06:21;99415.25;;;9.89;100.00
20909;BME280;10614;53.198;6.570;2023-03-31T09:08:31;99412.63;;;9.89;100.00
20909;BME280;10614;53.198;6.570;2023-03-31T09:10:44;99414.34;;;9.90;100.00
20909;BME280;10614;53.198;6.570;2023-03-31T09:12:54;99414.13;;;9.93;100.00
20909;BME280;10614;53.198;6.570;2023-03-31T09:15:00;99414.97;;;9.94;100.00
20909;BME280;10614;53.198;6.570;2023-03-31T09:17:14;99407.94;;;9.94;100.00
20909;BME280;10614;53.198;6.570;2023-03-31T09:19:19;99402.59;;;9.96;100.00
20909;BME280;10614;53.198;6.570;2023-03-31T09:21:27;99405.97;;;9.98;100.00
20909;BME280;10614;53.198;6.570;2023-03-31T09:23:35;99405.03;;;9.99;100.00
20909;BME280;10614;53.198;6.570;2023-03-31T09:25:40;99404.09;;;10.00;100.00
20909;BME280;10614;53.198;6.570;2023-03-31T09:27:44;99395.28;;;10.01;100.00
20909;BME280;10614;53.198;6.570;2023-03-31T09:29:48;99393.47;;;10.02;100.00
20909;BME280;10614;53.198;6.570;2023-03-31T09:31:52;99392.44;;;10.04;100.00
20909;BME280;10614;53.198;6.570;2023-03-31T09:34:00;99396.78;;;10.05;100.00
20909;BME280;10614;53.198;6.570;2023-03-31T09:36:07;99393.19;;;10.06;100.00
20909;BME280;10614;53.198;6.570;2023-03-31T09:38:14;99389.66;;;10.07;100.00
20909;BME280;10614;53.198;6.570;2023-03-31T09:40:19;99392.16;;;10.09;100.00
20909;BME280;10614;53.198;6.570;2023-03-31T09:42:21;99389.38;;;10.12;100.00
20909;BME280;10614;53.198;6.570;2023-03-31T09:44:26;99390.28;;;10.11;100.00
20909;BME280;10614;53.198;6.570;2023-03-31T09:46:30;99391.81;;;10.15;100.00
20909;BME280;10614;53.198;6.570;2023-03-31T09:48:34;99384.66;;;10.17;100.00
20909;BME280;10614;53.198;6.570;2023-03-31T09:50:42;99393.31;;;10.19;100.00
20909;BME280;10614;53.198;6.570;2023-03-31T09:52:50;99386.06;;;10.23;100.00
20909;BME280;10614;53.198;6.570;2023-03-31T09:54:55;99380.63;;;10.26;100.00
20909;BME280;10614;53.198;6.570;2023-03-31T09:56:58;99379.63;;;10.28;100.00
20909;BME280;10614;53.198;6.570;2023-03-31T09:59:01;99376.88;;;10.30;100.00
20909;BME280;10614;53.198;6.570;2023-03-31T10:01:07;99379.22;;;10.34;100.00
20909;BME280;10614;53.198;6.570;2023-03-31T10:03:12;99379.06;;;10.38;100.00
20909;BME280;10614;53.198;6.570;2023-03-31T10:05:26;99374.44;;;10.41;100.00
20909;BME280;10614;53.198;6.570;2023-03-31T10:07:33;99371.63;;;10.44;100.00
20909;BME280;10614;53.198;6.570;2023-03-31T10:09:37;99373.97;;;10.49;100.00
20909;BME280;10614;53.198;6.570;2023-03-31T10:11:51;99369.34;;;10.52;100.00
20909;BME280;10614;53.198;6.570;2023-03-31T10:13:58;99367.47;;;10.54;100.00
20909;BME280;10614;53.198;6.570;2023-03-31T10:16:05;99367.25;;;10.57;100.00
20909;BME280;10614;53.198;6.570;2023-03-31T10:18:13;99368.00;;;10.60;100.00
20909;BME280;10614;53.198;6.570;2023-03-31T10:20:27;99374.22;;;10.59;100.00
20909;BME280;10614;53.198;6.570;2023-03-31T10:22:43;99371.69;;;10.57;100.00
20909;BME280;10614;53.198;6.570;2023-03-31T10:24:45;99362.75;;;10.60;100.00
20909;BME280;10614;53.198;6.570;2023-03-31T10:26:52;99357.28;;;10.63;100.00
20909;BME280;10614;53.198;6.570;2023-03-31T10:28:54;99360.66;;;10.65;100.00
20909;BME280;10614;53.198;6.570;2023-03-31T10:30:58;99364.16;;;10.65;100.00
20909;BME280;10614;53.198;6.570;2023-03-31T10:33:05;99360.56;;;10.66;100.00
20909;BME280;10614;53.198;6.570;2023-03-31T10:35:20;99357.94;;;10.66;100.00
20909;BME280;10614;53.198;6.570;2023-03-31T10:37:26;99354.47;;;10.66;100.00
20909;BME280;10614;53.198;6.570;2023-03-31T10:39:34;99360.66;;;10.65;100.00
20909;BME280;10614;53.198;6.570;2023-03-31T10:41:37;99361.81;;;10.61;100.00
20909;BME280;10614;53.198;6.570;2023-03-31T10:43:40;99354.78;;;10.61;100.00
20909;BME280;10614;53.198;6.570;2023-03-31T10:45:47;99359.81;;;10.64;100.00
20909;BME280;10614;53.198;6.570;2023-03-31T10:47:52;99351.00;;;10.65;100.00
20909;BME280;10614;53.198;6.570;2023-03-31T10:49:56;99355.22;;;10.68;100.00
20909;BME280;10614;53.198;6.570;2023-03-31T10:51:59;99352.47;;;10.69;100.00
20909;BME280;10614;53.198;6.570;2023-03-31T10:54:01;99352.47;;;10.69;100.00
20909;BME280;10614;53.198;6.570;2023-03-31T10:56:18;99353.13;;;10.73;100.00
20909;BME280;10614;53.198;6.570;2023-03-31T10:58:33;99350.28;;;10.76;100.00
20909;BME280;10614;53.198;6.570;2023-03-31T11:00:52;99350.84;;;10.81;100.00
20909;BME280;10614;53.198;6.570;2023-03-31T11:05:48;99351.38;;;10.86;100.00
20909;BME280;10614;53.198;6.570;2023-03-31T11:08:02;99349.50;;;10.88;100.00
20909;BME280;10614;53.198;6.570;2023-03-31T11:12:38;99350.78;;;10.95;100.00